sensor_id;sensor_type;location;lat;lon;timestamp;pressure;altitude;pressure_sealevel;temperature;humidity
65175;BME280;51761;42.126;24.752;2023-04-01T00:00:51;98762.81;;;12.06;68.36
65175;BME280;51761;42.126;24.752;2023-04-01T00:03:17;98760.88;;;11.94;69.43
65175;BME280;51761;42.126;24.752;2023-04-01T00:05:43;98754.06;;;11.83;69.75
65175;BME280;51761;42.126;24.752;2023-04-01T00:08:08;98728.28;;;11.66;69.95
65175;BME280;51761;42.126;24.752;2023-04-01T00:10:34;98750.47;;;11.82;69.74
65175;BME280;51761;42.126;24.752;2023-04-01T00:12:59;98761.34;;;11.80;69.57
65175;BME280;51761;42.126;24.752;2023-04-01T00:15:25;98746.25;;;11.78;69.29
65175;BME280;51761;42.126;24.752;2023-04-01T00:17:51;98741.94;;;11.64;69.71
65175;BME280;51761;42.126;24.752;2023-04-01T00:20:16;98745.28;;;11.59;70.04
65175;BME280;51761;42.126;24.752;2023-04-01T00:22:42;98755.56;;;11.62;70.19
65175;BME280;51761;42.126;24.752;2023-04-01T00:25:08;98736.44;;;11.61;69.88
65175;BME280;51761;42.126;24.752;2023-04-01T00:27:34;98741.47;;;11.53;68.92
65175;BME280;51761;42.126;24.752;2023-04-01T00:29:59;98778.81;;;11.59;69.06
65175;BME280;51761;42.126;24.752;2023-04-01T00:32:25;98765.75;;;11.56;69.23
65175;BME280;51761;42.126;24.752;2023-04-01T00:34:51;98774.34;;;11.49;68.54
65175;BME280;51761;42.126;24.752;2023-04-01T00:37:18;98760.13;;;11.44;69.02
65175;BME280;51761;42.126;24.752;2023-04-01T00:39:43;98745.41;;;11.31;69.10
65175;BME280;51761;42.126;24.752;2023-04-01T00:42:09;98757.69;;;11.33;69.71
65175;BME280;51761;42.126;24.752;2023-04-01T00:44:37;98760.28;;;11.28;70.23
65175;BME280;51761;42.126;24.752;2023-04-01T00:47:02;98766.53;;;11.19;70.18
65175;BME280;51761;42.126;24.752;2023-04-01T00:49:31;98759.50;;;11.15;70.73
65175;BME280;51761;42.126;24.752;2023-04-01T00:51:59;98772.13;;;11.19;70.66
65175;BME280;51761;42.126;24.752;2023-04-01T00:54:27;98759.50;;;11.15;70.55
65175;BME280;51761;42.126;24.752;2023-04-01T00:57:00;98765.78;;;11.06;71.37
65175;BME280;51761;42.126;24.752;2023-04-01T00:59:34;98760.50;;;11.08;70.85
65175;BME280;51761;42.126;24.752;2023-04-01T01:02:05;98749.53;;;11.01;71.32
65175;BME280;51761;42.126;24.752;2023-04-01T01:04:34;98734.34;;;10.90;71.30
65175;BME280;51761;42.126;24.752;2023-04-01T01:10:17;98760.50;;;11.08;71.32
65175;BME280;51761;42.126;24.752;2023-04-01T01:20:57;98754.13;;;11.33;70.84
65175;BME280;51761;42.126;24.752;2023-04-01T01:37:14;98745.06;;;11.29;70.87
65175;BME280;51761;42.126;24.752;2023-04-01T01:39:43;98721.72;;;11.23;71.42
65175;BME280;51761;42.126;24.752;2023-04-01T01:42:13;98731.75;;;11.33;70.88
65175;BME280;51761;42.126;24.752;2023-04-01T01:44:41;98735.19;;;11.49;70.03
65175;BME280;51761;42.126;24.752;2023-04-01T01:47:08;98732.19;;;11.44;70.05
65175;BME280;51761;42.126;24.752;2023-04-01T01:49:35;98720.59;;;11.33;70.07
65175;BME280;51761;42.126;24.752;2023-04-01T01:52:02;98736.78;;;11.63;70.43
65175;BME280;51761;42.126;24.752;2023-04-01T01:54:28;98726.25;;;11.54;69.63
65175;BME280;51761;42.126;24.752;2023-04-01T01:57:09;98723.78;;;11.44;70.29
65175;BME280;51761;42.126;24.752;2023-04-01T01:59:38;98703.72;;;11.36;70.45
65175;BME280;51761;42.126;24.752;2023-04-01T02:02:04;98691.41;;;11.21;70.15
65175;BME280;51761;42.126;24.752;2023-04-01T02:04:39;98722.81;;;11.38;69.95
65175;BME280;51761;42.126;24.752;2023-04-01T02:07:33;98694.00;;;11.16;70.24
65175;BME280;51761;42.126;24.752;2023-04-01T02:09:58;98712.88;;;11.24;70.31
65175;BME280;51761;42.126;24.752;2023-04-01T02:12:24;98703.28;;;11.13;70.64
65175;BME280;51761;42.126;24.752;2023-04-01T02:17:29;98689.78;;;10.99;70.23
65175;BME280;51761;42.126;24.752;2023-04-01T02:20:05;98704.19;;;10.98;70.12
65175;BME280;51761;42.126;24.752;2023-04-01T02:22:42;98719.38;;;10.97;70.66
65175;BME280;51761;42.126;24.752;2023-04-01T02:25:13;98723.63;;;10.89;70.77
65175;BME280;51761;42.126;24.752;2023-04-01T02:27:42;98732.00;;;10.89;71.69
65175;BME280;51761;42.126;24.752;2023-04-01T02:30:09;98691.44;;;10.72;70.58
65175;BME280;51761;42.126;24.752;2023-04-01T02:32:36;98705.72;;;10.74;71.46
65175;BME280;51761;42.126;24.752;2023-04-01T02:35:05;98695.59;;;10.80;71.31
65175;BME280;51761;42.126;24.752;2023-04-01T02:37:32;98696.91;;;10.88;71.25
65175;BME280;51761;42.126;24.752;2023-04-01T02:40:03;98697.69;;;11.00;70.67
65175;BME280;51761;42.126;24.752;2023-04-01T02:42:30;98697.16;;;10.81;71.01
65175;BME280;51761;42.126;24.752;2023-04-01T02:44:55;98673.91;;;10.84;70.75
65175;BME280;51761;42.126;24.752;2023-04-01T02:47:20;98666.88;;;10.67;71.19
65175;BME280;51761;42.126;24.752;2023-04-01T02:49:46;98702.59;;;10.72;71.14
65175;BME280;51761;42.126;24.752;2023-04-01T02:52:11;98708.31;;;10.68;71.15
65175;BME280;51761;42.126;24.752;2023-04-01T02:54:37;98704.72;;;10.55;72.10
65175;BME280;51761;42.126;24.752;2023-04-01T02:57:02;98703.81;;;10.58;72.24
65175;BME280;51761;42.126;24.752;2023-04-01T02:59:28;98699.56;;;10.41;72.42
65175;BME280;51761;42.126;24.752;2023-04-01T03:01:53;98693.84;;;10.45;72.05
65175;BME280;51761;42.126;24.752;2023-04-01T03:04:19;98689.31;;;10.51;71.39
65175;BME280;51761;42.126;24.752;2023-04-01T03:06:44;98696.88;;;10.50;71.63
65175;BME280;51761;42.126;24.752;2023-04-01T03:09:10;98681.66;;;10.26;72.37
65175;BME280;51761;42.126;24.752;2023-04-01T03:11:35;98696.97;;;10.22;72.72
65175;BME280;51761;42.126;24.752;2023-04-01T03:14:01;98693.19;;;10.00;73.03
65175;BME280;51761;42.126;24.752;2023-04-01T03:16:26;98697.56;;;9.85;73.41
65175;BME280;51761;42.126;24.752;2023-04-01T03:18:52;98706.03;;;9.81;73.57
65175;BME280;51761;42.126;24.752;2023-04-01T03:21:21;98693.94;;;9.72;73.46
65175;BME280;51761;42.126;24.752;2023-04-01T03:23:47;98700.22;;;9.60;74.33
65175;BME280;51761;42.126;24.752;2023-04-01T03:26:13;98693.38;;;9.48;74.48
65175;BME280;51761;42.126;24.752;2023-04-01T03:28:39;98675.81;;;9.20;75.46
65175;BME280;51761;42.126;24.752;2023-04-01T03:31:05;98684.38;;;9.29;75.17
65175;BME280;51761;42.126;24.752;2023-04-01T03:33:31;98688.19;;;9.35;75.01
65175;BME280;51761;42.126;24.752;2023-04-01T03:35:57;98692.25;;;9.30;75.22
65175;BME280;51761;42.126;24.752;2023-04-01T03:38:23;98666.69;;;9.19;75.36
65175;BME280;51761;42.126;24.752;2023-04-01T03:40:48;98660.41;;;9.31;75.39
65175;BME280;51761;42.126;24.752;2023-04-01T03:43:14;98664.59;;;9.23;76.30
65175;BME280;51761;42.126;24.752;2023-04-01T03:45:49;98666.22;;;9.37;75.64
65175;BME280;51761;42.126;24.752;2023-04-01T03:48:15;98664.59;;;9.39;75.64
65175;BME280;51761;42.126;24.752;2023-04-01T03:50:41;98671.63;;;9.43;75.00
65175;BME280;51761;42.126;24.752;2023-04-01T03:53:07;98680.78;;;9.28;75.54
65175;BME280;51761;42.126;24.752;2023-04-01T03:55:32;98677.50;;;9.17;75.79
65175;BME280;51761;42.126;24.752;2023-04-01T03:57:59;98650.25;;;9.09;75.67
65175;BME280;51761;42.126;24.752;2023-04-01T04:00:24;98662.16;;;9.25;75.46
65175;BME280;51761;42.126;24.752;2023-04-01T04:02:50;98655.88;;;9.21;75.97
65175;BME280;51761;42.126;24.752;2023-04-01T04:05:15;98644.75;;;9.21;75.31
65175;BME280;51761;42.126;24.752;2023-04-01T04:07:41;98653.38;;;9.27;75.40
65175;BME280;51761;42.126;24.752;2023-04-01T04:10:07;98654.47;;;9.29;75.55
65175;BME280;51761;42.126;24.752;2023-04-01T04:12:32;98655.97;;;9.34;75.41
65175;BME280;51761;42.126;24.752;2023-04-01T04:14:58;98652.97;;;9.40;75.43
65175;BME280;51761;42.126;24.752;2023-04-01T04:17:23;98628.19;;;9.30;75.72
65175;BME280;51761;42.126;24.752;2023-04-01T04:19:49;98636.25;;;9.40;76.45
65175;BME280;51761;42.126;24.752;2023-04-01T04:22:14;98653.19;;;9.62;75.92
65175;BME280;51761;42.126;24.752;2023-04-01T04:24:40;98639.03;;;9.56;75.74
65175;BME280;51761;42.126;24.752;2023-04-01T04:27:05;98654.41;;;9.89;74.89
65175;BME280;51761;42.126;24.752;2023-04-01T04:29:31;98658.31;;;9.92;74.94
65175;BME280;51761;42.126;24.752;2023-04-01T04:31:56;98642.81;;;9.91;74.92
65175;BME280;51761;42.126;24.752;2023-04-01T04:34:22;98651.34;;;10.00;74.69
65175;BME280;51761;42.126;24.752;2023-04-01T04:36:48;98654.28;;;10.09;74.36
65175;BME280;51761;42.126;24.752;2023-04-01T04:39:15;98649.28;;;10.16;74.50
65175;BME280;51761;42.126;24.752;2023-04-01T04:41:40;98650.25;;;10.10;73.93
65175;BME280;51761;42.126;24.752;2023-04-01T04:44:06;98657.31;;;10.14;74.44
65175;BME280;51761;42.126;24.752;2023-04-01T04:46:32;98655.09;;;10.34;74.15
65175;BME280;51761;42.126;24.752;2023-04-01T04:48:58;98663.94;;;10.45;73.80
65175;BME280;51761;42.126;24.752;2023-04-01T04:51:23;98639.59;;;10.46;73.89
65175;BME280;51761;42.126;24.752;2023-04-01T04:53:49;98665.75;;;10.64;74.03
65175;BME280;51761;42.126;24.752;2023-04-01T04:56:20;98677.59;;;10.81;72.82
65175;BME280;51761;42.126;24.752;2023-04-01T04:58:45;98680.72;;;10.83;72.54
65175;BME280;51761;42.126;24.752;2023-04-01T05:01:13;98658.06;;;10.68;72.74
65175;BME280;51761;42.126;24.752;2023-04-01T05:03:39;98662.50;;;10.78;72.62
65175;BME280;51761;42.126;24.752;2023-04-01T05:06:07;98636.94;;;10.80;72.39
65175;BME280;51761;42.126;24.752;2023-04-01T05:08:33;98644.75;;;10.85;72.35
65175;BME280;51761;42.126;24.752;2023-04-01T05:11:00;98663.56;;;11.18;71.49
65175;BME280;51761;42.126;24.752;2023-04-01T05:13:26;98675.88;;;11.33;71.04
65175;BME280;51761;42.126;24.752;2023-04-01T05:15:51;98660.84;;;11.52;69.76
65175;BME280;51761;42.126;24.752;2023-04-01T05:18:17;98645.66;;;11.40;70.39
65175;BME280;51761;42.126;24.752;2023-04-01T05:20:50;98653.47;;;11.58;69.66
65175;BME280;51761;42.126;24.752;2023-04-01T05:23:16;98660.25;;;11.91;68.44
65175;BME280;51761;42.126;24.752;2023-04-01T05:25:42;98650.13;;;12.06;68.17
65175;BME280;51761;42.126;24.752;2023-04-01T05:28:08;98651.41;;;12.14;67.61
65175;BME280;51761;42.126;24.752;2023-04-01T05:30:33;98654.66;;;12.12;68.10
65175;BME280;51761;42.126;24.752;2023-04-01T05:32:59;98654.97;;;11.93;68.18
65175;BME280;51761;42.126;24.752;2023-04-01T05:35:25;98657.72;;;11.84;69.06
65175;BME280;51761;42.126;24.752;2023-04-01T05:37:51;98639.00;;;11.93;68.36
65175;BME280;51761;42.126;24.752;2023-04-01T05:40:17;98623.94;;;11.78;68.73
65175;BME280;51761;42.126;24.752;2023-04-01T05:42:42;98607.69;;;11.64;69.39
65175;BME280;51761;42.126;24.752;2023-04-01T05:45:08;98624.84;;;11.75;69.65
65175;BME280;51761;42.126;24.752;2023-04-01T05:47:34;98620.75;;;11.67;69.81
65175;BME280;51761;42.126;24.752;2023-04-01T05:49:59;98620.03;;;11.76;69.61
65175;BME280;51761;42.126;24.752;2023-04-01T05:52:25;98585.13;;;11.46;71.44
65175;BME280;51761;42.126;24.752;2023-04-01T05:54:50;98588.84;;;11.43;71.49
65175;BME280;51761;42.126;24.752;2023-04-01T05:57:16;98593.78;;;11.39;71.21
65175;BME280;51761;42.126;24.752;2023-04-01T05:59:41;98585.88;;;11.59;71.01
65175;BME280;51761;42.126;24.752;2023-04-01T06:02:08;98563.94;;;11.36;72.09
65175;BME280;51761;42.126;24.752;2023-04-01T06:04:38;98557.19;;;11.46;71.36
65175;BME280;51761;42.126;24.752;2023-04-01T06:07:15;98568.91;;;11.54;71.35
65175;BME280;51761;42.126;24.752;2023-04-01T06:09:42;98604.22;;;11.60;71.94
65175;BME280;51761;42.126;24.752;2023-04-01T06:23:09;98542.19;;;12.83;100.00
65175;BME280;51761;42.126;24.752;2023-04-01T06:25:54;98550.19;;;13.03;90.64
65175;BME280;51761;42.126;24.752;2023-04-01T06:31:11;98562.84;;;13.34;85.22
65175;BME280;51761;42.126;24.752;2023-04-01T06:37:09;98549.13;;;13.45;73.22
65175;BME280;51761;42.126;24.752;2023-04-01T06:48:03;98570.63;;;13.66;65.65
65175;BME280;51761;42.126;24.752;2023-04-01T06:53:39;98563.63;;;13.17;67.29
65175;BME280;51761;42.126;24.752;2023-04-01T06:56:19;98565.78;;;13.31;67.64
65175;BME280;51761;42.126;24.752;2023-04-01T07:01:26;98553.25;;;12.87;68.60
65175;BME280;51761;42.126;24.752;2023-04-01T07:04:20;98581.31;;;12.96;68.97
65175;BME280;51761;42.126;24.752;2023-04-01T07:06:53;98583.69;;;12.67;70.33
65175;BME280;51761;42.126;24.752;2023-04-01T07:09:23;98572.75;;;12.51;71.29
65175;BME280;51761;42.126;24.752;2023-04-01T07:11:50;98553.31;;;12.57;71.47
65175;BME280;51761;42.126;24.752;2023-04-01T07:14:29;98541.19;;;12.59;70.96
65175;BME280;51761;42.126;24.752;2023-04-01T07:19:52;98548.22;;;12.73;71.21
65175;BME280;51761;42.126;24.752;2023-04-01T07:22:29;98528.28;;;12.62;71.60
65175;BME280;51761;42.126;24.752;2023-04-01T07:25:02;98515.97;;;12.59;71.48
65175;BME280;51761;42.126;24.752;2023-04-01T07:27:28;98518.66;;;12.63;71.39
65175;BME280;51761;42.126;24.752;2023-04-01T07:29:56;98511.81;;;12.73;71.30
65175;BME280;51761;42.126;24.752;2023-04-01T07:35:20;98514.41;;;13.16;70.17
65175;BME280;51761;42.126;24.752;2023-04-01T07:56:53;98514.31;;;13.97;68.36
65175;BME280;51761;42.126;24.752;2023-04-01T08:02:33;98519.28;;;14.02;68.00
65175;BME280;51761;42.126;24.752;2023-04-01T08:05:26;98519.91;;;14.06;67.58
65175;BME280;51761;42.126;24.752;2023-04-01T08:21:58;98465.47;;;14.03;68.44
65175;BME280;51761;42.126;24.752;2023-04-01T08:24:25;98470.41;;;14.26;67.43
65175;BME280;51761;42.126;24.752;2023-04-01T08:26:59;98468.47;;;14.41;66.61
65175;BME280;51761;42.126;24.752;2023-04-01T08:29:40;98472.16;;;14.47;66.54
65175;BME280;51761;42.126;24.752;2023-04-01T08:32:28;98465.84;;;14.61;65.95
65175;BME280;51761;42.126;24.752;2023-04-01T08:37:38;98461.84;;;14.76;64.85
65175;BME280;51761;42.126;24.752;2023-04-01T09:05:21;98421.41;;;15.64;61.89
65175;BME280;51761;42.126;24.752;2023-04-01T09:13:44;98396.75;;;15.30;62.93
65175;BME280;51761;42.126;24.752;2023-04-01T09:25:21;98349.56;;;15.25;62.48
65175;BME280;51761;42.126;24.752;2023-04-01T09:35:48;98350.88;;;15.39;62.97
65175;BME280;51761;42.126;24.752;2023-04-01T09:38:30;98340.31;;;15.34;62.35
65175;BME280;51761;42.126;24.752;2023-04-01T09:43:28;98342.66;;;15.84;61.59
65175;BME280;51761;42.126;24.752;2023-04-01T09:46:08;98344.63;;;15.78;61.00
65175;BME280;51761;42.126;24.752;2023-04-01T09:49:02;98347.03;;;15.85;60.71
65175;BME280;51761;42.126;24.752;2023-04-01T10:43:28;98219.56;;;17.93;53.88
65175;BME280;51761;42.126;24.752;2023-04-01T11:17:14;98158.56;;;18.23;54.05
65175;BME280;51761;42.126;24.752;2023-04-01T11:25:42;98128.75;;;18.22;54.36
65175;BME280;51761;42.126;24.752;2023-04-01T11:31:10;98122.31;;;19.70;52.57
65175;BME280;51761;42.126;24.752;2023-04-01T11:37:28;98121.53;;;20.32;48.32
65175;BME280;51761;42.126;24.752;2023-04-01T11:40:27;98108.75;;;20.20;48.85
65175;BME280;51761;42.126;24.752;2023-04-01T11:53:50;98078.91;;;21.36;46.82
65175;BME280;51761;42.126;24.752;2023-04-01T12:10:41;98084.94;;;19.82;49.11
65175;BME280;51761;42.126;24.752;2023-04-01T12:18:53;98071.47;;;19.15;51.56
65175;BME280;51761;42.126;24.752;2023-04-01T12:21:32;98051.41;;;19.13;51.58
65175;BME280;51761;42.126;24.752;2023-04-01T12:27:08;98015.63;;;19.89;50.33
65175;BME280;51761;42.126;24.752;2023-04-01T12:41:56;97999.50;;;22.73;45.06
65175;BME280;51761;42.126;24.752;2023-04-01T12:49:44;97987.16;;;22.83;44.12
65175;BME280;51761;42.126;24.752;2023-04-01T12:58:04;97987.13;;;21.89;45.66
65175;BME280;51761;42.126;24.752;2023-04-01T13:08:44;97978.91;;;21.67;46.96
65175;BME280;51761;42.126;24.752;2023-04-01T13:19:21;97957.97;;;22.20;44.03
65175;BME280;51761;42.126;24.752;2023-04-01T13:22:03;97950.00;;;22.00;45.02
65175;BME280;51761;42.126;24.752;2023-04-01T13:24:43;97969.53;;;21.72;45.08
65175;BME280;51761;42.126;24.752;2023-04-01T13:27:40;97967.72;;;21.08;46.36
65175;BME280;51761;42.126;24.752;2023-04-01T13:30:16;97973.41;;;20.79;46.29
65175;BME280;51761;42.126;24.752;2023-04-01T13:41:58;98115.72;;;18.47;52.18
65175;BME280;51761;42.126;24.752;2023-04-01T13:44:50;98103.75;;;17.99;53.19
65175;BME280;51761;42.126;24.752;2023-04-01T13:47:08;98132.53;;;17.97;54.06
65175;BME280;51761;42.126;24.752;2023-04-01T13:55:34;98176.22;;;17.24;56.89
65175;BME280;51761;42.126;24.752;2023-04-01T14:01:14;98193.94;;;16.93;59.63
65175;BME280;51761;42.126;24.752;2023-04-01T14:12:22;98259.88;;;15.42;71.65
65175;BME280;51761;42.126;24.752;2023-04-01T14:49:28;98169.41;;;16.48;63.41
65175;BME280;51761;42.126;24.752;2023-04-01T14:51:37;98164.28;;;16.47;63.02
65175;BME280;51761;42.126;24.752;2023-04-01T14:54:19;98164.56;;;16.29;63.23
65175;BME280;51761;42.126;24.752;2023-04-01T14:59:30;98176.75;;;16.40;62.99
65175;BME280;51761;42.126;24.752;2023-04-01T15:08:05;98166.28;;;16.01;66.58
65175;BME280;51761;42.126;24.752;2023-04-01T15:13:37;98168.69;;;15.68;67.34
65175;BME280;51761;42.126;24.752;2023-04-01T15:21:13;98148.13;;;15.42;67.56
65175;BME280;51761;42.126;24.752;2023-04-01T15:24:06;98174.44;;;15.59;67.70
65175;BME280;51761;42.126;24.752;2023-04-01T15:29:27;98166.22;;;15.56;68.20
65175;BME280;51761;42.126;24.752;2023-04-01T15:32:28;98170.16;;;15.64;68.33
65175;BME280;51761;42.126;24.752;2023-04-01T15:38:04;98142.50;;;15.82;67.59
65175;BME280;51761;42.126;24.752;2023-04-01T15:40:49;98156.66;;;15.88;67.96
65175;BME280;51761;42.126;24.752;2023-04-01T15:43:36;98161.66;;;15.78;68.18
65175;BME280;51761;42.126;24.752;2023-04-01T15:51:56;98140.75;;;15.65;68.02
65175;BME280;51761;42.126;24.752;2023-04-01T15:54:32;98143.84;;;15.67;68.67
65175;BME280;51761;42.126;24.752;2023-04-01T15:57:19;98136.91;;;15.62;68.14
65175;BME280;51761;42.126;24.752;2023-04-01T16:00:02;98133.09;;;15.65;68.56
65175;BME280;51761;42.126;24.752;2023-04-01T16:07:54;98142.59;;;15.68;69.13
65175;BME280;51761;42.126;24.752;2023-04-01T16:18:54;98178.03;;;15.60;70.14
65175;BME280;51761;42.126;24.752;2023-04-01T16:21:37;98192.25;;;15.51;71.00
65175;BME280;51761;42.126;24.752;2023-04-01T16:30:17;98216.78;;;15.50;69.72
65175;BME280;51761;42.126;24.752;2023-04-01T16:32:34;98225.13;;;15.45;69.69
65175;BME280;51761;42.126;24.752;2023-04-01T16:37:47;98220.50;;;15.42;69.42
65175;BME280;51761;42.126;24.752;2023-04-01T16:45:41;98233.59;;;15.16;69.28
65175;BME280;51761;42.126;24.752;2023-04-01T16:48:15;98242.94;;;15.07;69.66
65175;BME280;51761;42.126;24.752;2023-04-01T16:53:18;98260.38;;;14.82;74.46
65175;BME280;51761;42.126;24.752;2023-04-01T16:58:43;98251.97;;;14.07;80.51
65175;BME280;51761;42.126;24.752;2023-04-01T17:01:28;98250.00;;;13.75;85.27
65175;BME280;51761;42.126;24.752;2023-04-01T17:04:00;98192.81;;;13.16;87.17
65175;BME280;51761;42.126;24.752;2023-04-01T17:06:44;98216.16;;;13.22;87.74
65175;BME280;51761;42.126;24.752;2023-04-01T17:18:19;98166.38;;;13.08;88.13
65175;BME280;51761;42.126;24.752;2023-04-01T17:20:32;98150.72;;;12.93;87.72
65175;BME280;51761;42.126;24.752;2023-04-01T17:28:57;98175.97;;;13.25;84.59
65175;BME280;51761;42.126;24.752;2023-04-01T17:34:25;98184.66;;;13.27;83.12
65175;BME280;51761;42.126;24.752;2023-04-01T17:44:48;98232.63;;;13.62;81.81
65175;BME280;51761;42.126;24.752;2023-04-01T17:47:31;98254.88;;;13.65;81.48
65175;BME280;51761;42.126;24.752;2023-04-01T17:53:17;98384.72;;;13.57;85.03
65175;BME280;51761;42.126;24.752;2023-04-01T17:55:55;98371.31;;;13.61;81.95
65175;BME280;51761;42.126;24.752;2023-04-01T18:01:17;98388.94;;;13.61;75.84
65175;BME280;51761;42.126;24.752;2023-04-01T18:11:43;98419.94;;;13.67;67.97
65175;BME280;51761;42.126;24.752;2023-04-01T18:14:29;98423.66;;;13.73;66.36
65175;BME280;51761;42.126;24.752;2023-04-01T18:17:23;98434.06;;;13.72;66.38
65175;BME280;51761;42.126;24.752;2023-04-01T18:20:14;98433.63;;;13.74;67.45
65175;BME280;51761;42.126;24.752;2023-04-01T18:22:46;98410.41;;;13.64;66.45
65175;BME280;51761;42.126;24.752;2023-04-01T18:25:24;98430.31;;;13.84;66.66
65175;BME280;51761;42.126;24.752;2023-04-01T18:30:51;98426.31;;;13.67;68.15
65175;BME280;51761;42.126;24.752;2023-04-01T18:36:18;98397.25;;;13.38;68.34
65175;BME280;51761;42.126;24.752;2023-04-01T18:41:26;98440.38;;;13.40;67.18
65175;BME280;51761;42.126;24.752;2023-04-01T18:52:17;98452.09;;;12.94;69.67
65175;BME280;51761;42.126;24.752;2023-04-01T18:57:50;98463.28;;;12.76;70.14
65175;BME280;51761;42.126;24.752;2023-04-01T19:00:39;98457.69;;;12.76;69.99
65175;BME280;51761;42.126;24.752;2023-04-01T19:03:34;98474.94;;;12.74;70.01
65175;BME280;51761;42.126;24.752;2023-04-01T19:06:17;98453.28;;;12.66;70.02
65175;BME280;51761;42.126;24.752;2023-04-01T19:08:45;98483.50;;;12.71;69.95
65175;BME280;51761;42.126;24.752;2023-04-01T19:11:28;98493.13;;;12.70;70.06
65175;BME280;51761;42.126;24.752;2023-04-01T19:14:00;98484.09;;;12.66;70.54
65175;BME280;51761;42.126;24.752;2023-04-01T19:25:26;98498.22;;;12.54;70.10
65175;BME280;51761;42.126;24.752;2023-04-01T19:36:56;98498.09;;;12.48;69.32
65175;BME280;51761;42.126;24.752;2023-04-01T19:41:52;98472.22;;;12.35;69.58
65175;BME280;51761;42.126;24.752;2023-04-01T19:47:15;98493.38;;;12.45;69.41
65175;BME280;51761;42.126;24.752;2023-04-01T19:52:37;98500.69;;;12.43;69.38
65175;BME280;51761;42.126;24.752;2023-04-01T20:00:56;98505.16;;;12.31;69.31
65175;BME280;51761;42.126;24.752;2023-04-01T20:06:41;98510.94;;;12.37;69.60
65175;BME280;51761;42.126;24.752;2023-04-01T20:14:23;98526.28;;;12.23;70.71
65175;BME280;51761;42.126;24.752;2023-04-01T20:17:13;98526.22;;;12.14;71.22
65175;BME280;51761;42.126;24.752;2023-04-01T20:20:02;98530.56;;;12.06;71.74
65175;BME280;51761;42.126;24.752;2023-04-01T20:24:58;98559.13;;;12.01;72.07
65175;BME280;51761;42.126;24.752;2023-04-01T20:27:33;98555.50;;;11.92;72.28
65175;BME280;51761;42.126;24.752;2023-04-01T20:30:23;98555.81;;;11.94;71.99
65175;BME280;51761;42.126;24.752;2023-04-01T20:43:48;98561.38;;;11.63;69.87
65175;BME280;51761;42.126;24.752;2023-04-01T20:46:20;98583.81;;;11.72;69.46
65175;BME280;51761;42.126;24.752;2023-04-01T20:51:46;98601.91;;;11.59;69.78
65175;BME280;51761;42.126;24.752;2023-04-01T20:59:36;98608.16;;;11.50;70.20
65175;BME280;51761;42.126;24.752;2023-04-01T21:02:24;98596.19;;;11.50;69.01
65175;BME280;51761;42.126;24.752;2023-04-01T21:27:39;98622.31;;;11.34;68.88
65175;BME280;51761;42.126;24.752;2023-04-01T21:47:27;98660.03;;;11.51;69.67
65175;BME280;51761;42.126;24.752;2023-04-01T22:07:15;98657.00;;;11.12;71.31
65175;BME280;51761;42.126;24.752;2023-04-01T22:10:02;98639.16;;;10.97;71.11
65175;BME280;51761;42.126;24.752;2023-04-01T22:18:43;98652.78;;;11.07;71.03
65175;BME280;51761;42.126;24.752;2023-04-01T22:23:56;98671.75;;;11.12;70.12
65175;BME280;51761;42.126;24.752;2023-04-01T22:33:02;98657.78;;;11.25;68.53
65175;BME280;51761;42.126;24.752;2023-04-01T22:35:18;98649.94;;;11.20;68.41
65175;BME280;51761;42.126;24.752;2023-04-01T22:41:19;98650.41;;;11.18;67.95
65175;BME280;51761;42.126;24.752;2023-04-01T22:43:42;98653.19;;;11.18;67.73
65175;BME280;51761;42.126;24.752;2023-04-01T22:46:23;98649.72;;;11.27;67.38
65175;BME280;51761;42.126;24.752;2023-04-01T22:51:54;98654.31;;;11.21;66.94
65175;BME280;51761;42.126;24.752;2023-04-01T22:54:27;98649.59;;;11.30;66.50
65175;BME280;51761;42.126;24.752;2023-04-01T22:57:01;98635.53;;;11.21;66.15
65175;BME280;51761;42.126;24.752;2023-04-01T22:59:37;98635.19;;;11.19;66.26
65175;BME280;51761;42.126;24.752;2023-04-01T23:02:21;98652.25;;;11.34;65.80
65175;BME280;51761;42.126;24.752;2023-04-01T23:04:54;98644.25;;;11.23;65.66
65175;BME280;51761;42.126;24.752;2023-04-01T23:12:54;98660.53;;;11.37;66.32
65175;BME280;51761;42.126;24.752;2023-04-01T23:15:22;98657.81;;;11.46;66.42
65175;BME280;51761;42.126;24.752;2023-04-01T23:26:32;98679.31;;;11.37;66.58
65175;BME280;51761;42.126;24.752;2023-04-01T23:29:00;98653.97;;;11.19;66.42
65175;BME280;51761;42.126;24.752;2023-04-01T23:31:27;98666.25;;;11.34;66.11
65175;BME280;51761;42.126;24.752;2023-04-01T23:33:55;98664.78;;;11.29;65.93
65175;BME280;51761;42.126;24.752;2023-04-01T23:36:22;98661.66;;;11.27;65.84
65175;BME280;51761;42.126;24.752;2023-04-01T23:38:48;98648.63;;;11.12;65.72
65175;BME280;51761;42.126;24.752;2023-04-01T23:41:23;98671.97;;;11.18;66.47
65175;BME280;51761;42.126;24.752;2023-04-01T23:44:11;98672.09;;;11.14;67.11
65175;BME280;51761;42.126;24.752;2023-04-01T23:46:39;98667.75;;;11.13;66.70
65175;BME280;51761;42.126;24.752;2023-04-01T23:49:12;98654.88;;;11.03;67.03
65175;BME280;51761;42.126;24.752;2023-04-01T23:51:49;98646.88;;;10.93;66.94
65175;BME280;51761;42.126;24.752;2023-04-01T23:56:55;98660.84;;;10.81;66.73
